sensor_id;sensor_type;location;lat;lon;timestamp;P1;durP1;ratioP1;P2;durP2;ratioP2
16994;SDS011;8614;48.522;9.206;2023-07-30T00:01:34;12.83;;;11.83;;
16994;SDS011;8614;48.522;9.206;2023-07-30T00:04:01;10.40;;;9.60;;
16994;SDS011;8614;48.522;9.206;2023-07-30T00:06:27;14.00;;;13.00;;
16994;SDS011;8614;48.522;9.206;2023-07-30T00:08:55;14.43;;;13.50;;
16994;SDS011;8614;48.522;9.206;2023-07-30T00:11:22;13.27;;;12.17;;
16994;SDS011;8614;48.522;9.206;2023-07-30T00:13:49;13.60;;;12.60;;
16994;SDS011;8614;48.522;9.206;2023-07-30T00:16:16;13.90;;;12.80;;
16994;SDS011;8614;48.522;9.206;2023-07-30T00:18:43;13.83;;;12.93;;
16994;SDS011;8614;48.522;9.206;2023-07-30T00:21:10;12.73;;;11.83;;
16994;SDS011;8614;48.522;9.206;2023-07-30T00:23:37;13.33;;;12.43;;
16994;SDS011;8614;48.522;9.206;2023-07-30T00:26:05;13.63;;;12.73;;
16994;SDS011;8614;48.522;9.206;2023-07-30T00:28:32;13.50;;;12.60;;
16994;SDS011;8614;48.522;9.206;2023-07-30T00:30:59;12.10;;;11.20;;
16994;SDS011;8614;48.522;9.206;2023-07-30T00:33:26;14.27;;;13.33;;
16994;SDS011;8614;48.522;9.206;2023-07-30T00:35:52;13.07;;;12.17;;
16994;SDS011;8614;48.522;9.206;2023-07-30T00:38:19;12.27;;;11.47;;
16994;SDS011;8614;48.522;9.206;2023-07-30T00:40:46;13.60;;;12.70;;
16994;SDS011;8614;48.522;9.206;2023-07-30T00:43:14;13.23;;;12.33;;
16994;SDS011;8614;48.522;9.206;2023-07-30T00:45:42;12.90;;;12.00;;
16994;SDS011;8614;48.522;9.206;2023-07-30T00:48:10;13.23;;;12.33;;
16994;SDS011;8614;48.522;9.206;2023-07-30T00:50:39;12.90;;;12.10;;
16994;SDS011;8614;48.522;9.206;2023-07-30T00:53:07;12.77;;;11.97;;
16994;SDS011;8614;48.522;9.206;2023-07-30T00:55:37;12.67;;;11.87;;
16994;SDS011;8614;48.522;9.206;2023-07-30T00:58:03;12.77;;;11.97;;
16994;SDS011;8614;48.522;9.206;2023-07-30T01:00:32;13.47;;;12.57;;
16994;SDS011;8614;48.522;9.206;2023-07-30T01:02:59;12.27;;;11.37;;
16994;SDS011;8614;48.522;9.206;2023-07-30T01:05:26;13.37;;;12.47;;
16994;SDS011;8614;48.522;9.206;2023-07-30T01:07:53;12.43;;;11.70;;
16994;SDS011;8614;48.522;9.206;2023-07-30T01:10:19;11.80;;;10.90;;
16994;SDS011;8614;48.522;9.206;2023-07-30T01:12:47;12.00;;;11.30;;
16994;SDS011;8614;48.522;9.206;2023-07-30T01:15:15;12.87;;;11.77;;
16994;SDS011;8614;48.522;9.206;2023-07-30T01:17:43;11.83;;;11.13;;
16994;SDS011;8614;48.522;9.206;2023-07-30T01:20:11;10.73;;;10.03;;
16994;SDS011;8614;48.522;9.206;2023-07-30T01:22:39;9.20;;;8.50;;
16994;SDS011;8614;48.522;9.206;2023-07-30T01:25:06;12.60;;;11.80;;
16994;SDS011;8614;48.522;9.206;2023-07-30T01:27:35;15.70;;;14.60;;
16994;SDS011;8614;48.522;9.206;2023-07-30T01:30:06;11.93;;;11.17;;
16994;SDS011;8614;48.522;9.206;2023-07-30T01:32:39;12.20;;;11.40;;
16994;SDS011;8614;48.522;9.206;2023-07-30T01:35:07;12.20;;;11.40;;
16994;SDS011;8614;48.522;9.206;2023-07-30T01:37:35;12.03;;;11.23;;
16994;SDS011;8614;48.522;9.206;2023-07-30T01:40:05;11.90;;;11.20;;
16994;SDS011;8614;48.522;9.206;2023-07-30T01:42:33;12.00;;;11.20;;
16994;SDS011;8614;48.522;9.206;2023-07-30T01:45:00;12.17;;;11.37;;
16994;SDS011;8614;48.522;9.206;2023-07-30T01:47:27;12.10;;;11.30;;
16994;SDS011;8614;48.522;9.206;2023-07-30T01:49:54;12.90;;;12.00;;
16994;SDS011;8614;48.522;9.206;2023-07-30T01:52:21;12.60;;;11.63;;
16994;SDS011;8614;48.522;9.206;2023-07-30T01:54:48;12.13;;;11.33;;
16994;SDS011;8614;48.522;9.206;2023-07-30T01:57:16;9.47;;;8.87;;
16994;SDS011;8614;48.522;9.206;2023-07-30T01:59:43;11.60;;;10.80;;
16994;SDS011;8614;48.522;9.206;2023-07-30T02:02:09;13.00;;;12.10;;
16994;SDS011;8614;48.522;9.206;2023-07-30T02:04:36;6.97;;;5.40;;
16994;SDS011;8614;48.522;9.206;2023-07-30T02:07:03;5.70;;;5.20;;
16994;SDS011;8614;48.522;9.206;2023-07-30T02:09:30;7.37;;;6.77;;
16994;SDS011;8614;48.522;9.206;2023-07-30T02:12:00;14.00;;;13.13;;
16994;SDS011;8614;48.522;9.206;2023-07-30T02:14:28;10.40;;;9.70;;
16994;SDS011;8614;48.522;9.206;2023-07-30T02:16:59;13.20;;;12.40;;
16994;SDS011;8614;48.522;9.206;2023-07-30T02:19:26;12.33;;;11.53;;
16994;SDS011;8614;48.522;9.206;2023-07-30T02:21:53;13.80;;;12.90;;
16994;SDS011;8614;48.522;9.206;2023-07-30T02:24:19;12.93;;;12.03;;
16994;SDS011;8614;48.522;9.206;2023-07-30T02:26:46;12.93;;;12.03;;
16994;SDS011;8614;48.522;9.206;2023-07-30T02:29:13;12.80;;;12.00;;
16994;SDS011;8614;48.522;9.206;2023-07-30T02:31:41;13.80;;;12.90;;
16994;SDS011;8614;48.522;9.206;2023-07-30T02:34:08;13.30;;;12.50;;
16994;SDS011;8614;48.522;9.206;2023-07-30T02:36:35;12.70;;;11.90;;
16994;SDS011;8614;48.522;9.206;2023-07-30T02:39:02;12.33;;;11.60;;
16994;SDS011;8614;48.522;9.206;2023-07-30T02:41:29;12.53;;;11.77;;
16994;SDS011;8614;48.522;9.206;2023-07-30T02:43:56;12.60;;;11.80;;
16994;SDS011;8614;48.522;9.206;2023-07-30T02:46:23;14.40;;;13.40;;
16994;SDS011;8614;48.522;9.206;2023-07-30T02:48:51;12.77;;;11.90;;
16994;SDS011;8614;48.522;9.206;2023-07-30T02:51:18;13.13;;;12.23;;
16994;SDS011;8614;48.522;9.206;2023-07-30T02:53:45;13.17;;;12.30;;
16994;SDS011;8614;48.522;9.206;2023-07-30T02:56:12;12.60;;;11.80;;
16994;SDS011;8614;48.522;9.206;2023-07-30T02:58:38;11.87;;;11.17;;
16994;SDS011;8614;48.522;9.206;2023-07-30T03:01:06;4.70;;;4.30;;
16994;SDS011;8614;48.522;9.206;2023-07-30T03:03:33;5.47;;;5.07;;
16994;SDS011;8614;48.522;9.206;2023-07-30T03:06:01;6.73;;;6.23;;
16994;SDS011;8614;48.522;9.206;2023-07-30T03:08:28;7.03;;;6.53;;
16994;SDS011;8614;48.522;9.206;2023-07-30T03:10:57;11.90;;;11.20;;
16994;SDS011;8614;48.522;9.206;2023-07-30T03:13:24;12.10;;;11.30;;
16994;SDS011;8614;48.522;9.206;2023-07-30T03:15:51;12.53;;;11.73;;
16994;SDS011;8614;48.522;9.206;2023-07-30T03:18:18;12.27;;;11.37;;
16994;SDS011;8614;48.522;9.206;2023-07-30T03:20:45;11.80;;;11.10;;
16994;SDS011;8614;48.522;9.206;2023-07-30T03:23:13;11.70;;;11.00;;
16994;SDS011;8614;48.522;9.206;2023-07-30T03:25:40;12.07;;;11.37;;
16994;SDS011;8614;48.522;9.206;2023-07-30T03:28:07;12.57;;;11.77;;
16994;SDS011;8614;48.522;9.206;2023-07-30T03:30:33;12.67;;;11.90;;
16994;SDS011;8614;48.522;9.206;2023-07-30T03:33:00;12.50;;;11.70;;
16994;SDS011;8614;48.522;9.206;2023-07-30T03:35:27;12.47;;;11.67;;
16994;SDS011;8614;48.522;9.206;2023-07-30T03:37:54;12.13;;;11.43;;
16994;SDS011;8614;48.522;9.206;2023-07-30T03:40:23;12.70;;;11.90;;
16994;SDS011;8614;48.522;9.206;2023-07-30T03:42:51;12.80;;;12.00;;
16994;SDS011;8614;48.522;9.206;2023-07-30T03:45:18;13.17;;;12.33;;
16994;SDS011;8614;48.522;9.206;2023-07-30T03:47:45;12.73;;;11.90;;
16994;SDS011;8614;48.522;9.206;2023-07-30T03:50:12;12.47;;;11.70;;
16994;SDS011;8614;48.522;9.206;2023-07-30T03:52:38;11.87;;;11.17;;
16994;SDS011;8614;48.522;9.206;2023-07-30T03:55:07;9.83;;;9.13;;
16994;SDS011;8614;48.522;9.206;2023-07-30T03:57:35;7.47;;;6.70;;
16994;SDS011;8614;48.522;9.206;2023-07-30T04:00:02;8.13;;;7.63;;
16994;SDS011;8614;48.522;9.206;2023-07-30T04:02:39;7.10;;;6.60;;
16994;SDS011;8614;48.522;9.206;2023-07-30T04:05:06;10.27;;;9.60;;
16994;SDS011;8614;48.522;9.206;2023-07-30T04:07:33;11.00;;;10.40;;
16994;SDS011;8614;48.522;9.206;2023-07-30T04:10:00;11.33;;;10.63;;
16994;SDS011;8614;48.522;9.206;2023-07-30T04:12:28;11.73;;;11.03;;
16994;SDS011;8614;48.522;9.206;2023-07-30T04:14:56;11.77;;;10.97;;
16994;SDS011;8614;48.522;9.206;2023-07-30T04:17:22;11.00;;;10.40;;
16994;SDS011;8614;48.522;9.206;2023-07-30T04:19:49;12.10;;;11.20;;
16994;SDS011;8614;48.522;9.206;2023-07-30T04:22:16;11.63;;;10.93;;
16994;SDS011;8614;48.522;9.206;2023-07-30T04:24:43;11.43;;;10.73;;
16994;SDS011;8614;48.522;9.206;2023-07-30T04:27:10;11.27;;;10.60;;
16994;SDS011;8614;48.522;9.206;2023-07-30T04:29:36;11.57;;;10.87;;
16994;SDS011;8614;48.522;9.206;2023-07-30T04:32:06;7.63;;;7.10;;
16994;SDS011;8614;48.522;9.206;2023-07-30T04:34:33;11.90;;;11.10;;
16994;SDS011;8614;48.522;9.206;2023-07-30T04:37:00;4.13;;;3.83;;
16994;SDS011;8614;48.522;9.206;2023-07-30T04:39:29;4.00;;;3.70;;
16994;SDS011;8614;48.522;9.206;2023-07-30T04:41:56;4.47;;;4.17;;
16994;SDS011;8614;48.522;9.206;2023-07-30T04:44:22;5.30;;;4.90;;
16994;SDS011;8614;48.522;9.206;2023-07-30T04:46:52;11.93;;;11.23;;
16994;SDS011;8614;48.522;9.206;2023-07-30T04:49:20;6.80;;;6.30;;
16994;SDS011;8614;48.522;9.206;2023-07-30T04:51:51;11.73;;;11.03;;
16994;SDS011;8614;48.522;9.206;2023-07-30T04:54:17;11.07;;;10.37;;
16994;SDS011;8614;48.522;9.206;2023-07-30T04:56:44;12.60;;;11.80;;
16994;SDS011;8614;48.522;9.206;2023-07-30T04:59:11;6.80;;;6.30;;
16994;SDS011;8614;48.522;9.206;2023-07-30T05:01:38;5.60;;;5.20;;
16994;SDS011;8614;48.522;9.206;2023-07-30T05:04:05;11.90;;;11.20;;
16994;SDS011;8614;48.522;9.206;2023-07-30T05:06:33;8.40;;;7.80;;
16994;SDS011;8614;48.522;9.206;2023-07-30T05:09:00;10.90;;;10.20;;
16994;SDS011;8614;48.522;9.206;2023-07-30T05:11:26;11.30;;;10.60;;
16994;SDS011;8614;48.522;9.206;2023-07-30T05:13:53;11.67;;;10.97;;
16994;SDS011;8614;48.522;9.206;2023-07-30T05:16:20;10.63;;;10.00;;
16994;SDS011;8614;48.522;9.206;2023-07-30T05:18:47;8.97;;;8.40;;
16994;SDS011;8614;48.522;9.206;2023-07-30T05:21:13;6.03;;;5.53;;
16994;SDS011;8614;48.522;9.206;2023-07-30T05:23:41;4.43;;;4.03;;
16994;SDS011;8614;48.522;9.206;2023-07-30T05:26:08;4.23;;;3.90;;
16994;SDS011;8614;48.522;9.206;2023-07-30T05:28:35;12.70;;;11.87;;
16994;SDS011;8614;48.522;9.206;2023-07-30T05:31:02;9.87;;;9.27;;
16994;SDS011;8614;48.522;9.206;2023-07-30T05:33:29;4.30;;;3.90;;
16994;SDS011;8614;48.522;9.206;2023-07-30T05:35:55;3.73;;;3.43;;
16994;SDS011;8614;48.522;9.206;2023-07-30T05:38:22;3.90;;;3.60;;
16994;SDS011;8614;48.522;9.206;2023-07-30T05:40:50;4.33;;;3.77;;
16994;SDS011;8614;48.522;9.206;2023-07-30T05:43:17;5.10;;;3.87;;
16994;SDS011;8614;48.522;9.206;2023-07-30T05:45:44;4.30;;;3.90;;
16994;SDS011;8614;48.522;9.206;2023-07-30T05:48:11;3.90;;;3.60;;
16994;SDS011;8614;48.522;9.206;2023-07-30T05:50:37;3.97;;;3.67;;
16994;SDS011;8614;48.522;9.206;2023-07-30T05:53:04;4.00;;;3.70;;
16994;SDS011;8614;48.522;9.206;2023-07-30T05:55:31;3.60;;;3.40;;
16994;SDS011;8614;48.522;9.206;2023-07-30T05:57:59;4.13;;;3.83;;
16994;SDS011;8614;48.522;9.206;2023-07-30T06:00:26;4.60;;;4.20;;
16994;SDS011;8614;48.522;9.206;2023-07-30T06:02:53;4.60;;;4.20;;
16994;SDS011;8614;48.522;9.206;2023-07-30T06:05:22;8.80;;;8.10;;
16994;SDS011;8614;48.522;9.206;2023-07-30T06:07:49;4.80;;;4.30;;
16994;SDS011;8614;48.522;9.206;2023-07-30T06:10:16;4.07;;;3.67;;
16994;SDS011;8614;48.522;9.206;2023-07-30T06:12:43;6.03;;;5.47;;
16994;SDS011;8614;48.522;9.206;2023-07-30T06:15:11;4.00;;;3.70;;
16994;SDS011;8614;48.522;9.206;2023-07-30T06:17:38;9.23;;;8.53;;
16994;SDS011;8614;48.522;9.206;2023-07-30T06:20:05;8.40;;;7.80;;
16994;SDS011;8614;48.522;9.206;2023-07-30T06:22:38;6.70;;;6.10;;
16994;SDS011;8614;48.522;9.206;2023-07-30T06:25:05;6.43;;;6.03;;
16994;SDS011;8614;48.522;9.206;2023-07-30T06:27:32;5.60;;;5.20;;
16994;SDS011;8614;48.522;9.206;2023-07-30T06:29:59;8.37;;;5.20;;
16994;SDS011;8614;48.522;9.206;2023-07-30T06:32:31;8.57;;;8.07;;
16994;SDS011;8614;48.522;9.206;2023-07-30T06:34:57;9.17;;;8.57;;
16994;SDS011;8614;48.522;9.206;2023-07-30T06:37:24;6.47;;;5.97;;
16994;SDS011;8614;48.522;9.206;2023-07-30T06:39:51;6.67;;;6.20;;
16994;SDS011;8614;48.522;9.206;2023-07-30T06:42:18;7.23;;;5.90;;
16994;SDS011;8614;48.522;9.206;2023-07-30T06:44:45;6.30;;;5.80;;
16994;SDS011;8614;48.522;9.206;2023-07-30T06:47:11;6.87;;;6.43;;
16994;SDS011;8614;48.522;9.206;2023-07-30T06:49:39;8.27;;;7.77;;
16994;SDS011;8614;48.522;9.206;2023-07-30T06:52:06;8.97;;;8.37;;
16994;SDS011;8614;48.522;9.206;2023-07-30T06:54:33;8.40;;;7.80;;
16994;SDS011;8614;48.522;9.206;2023-07-30T06:57:00;7.77;;;7.17;;
16994;SDS011;8614;48.522;9.206;2023-07-30T06:59:27;5.67;;;5.27;;
16994;SDS011;8614;48.522;9.206;2023-07-30T07:01:54;5.50;;;4.87;;
16994;SDS011;8614;48.522;9.206;2023-07-30T07:04:21;5.27;;;4.87;;
16994;SDS011;8614;48.522;9.206;2023-07-30T07:06:49;7.43;;;6.93;;
16994;SDS011;8614;48.522;9.206;2023-07-30T07:09:16;6.73;;;6.33;;
16994;SDS011;8614;48.522;9.206;2023-07-30T07:11:46;5.23;;;4.93;;
16994;SDS011;8614;48.522;9.206;2023-07-30T07:14:13;3.70;;;3.43;;
16994;SDS011;8614;48.522;9.206;2023-07-30T07:16:40;4.70;;;3.40;;
16994;SDS011;8614;48.522;9.206;2023-07-30T07:19:06;4.47;;;4.17;;
16994;SDS011;8614;48.522;9.206;2023-07-30T07:21:44;7.23;;;6.73;;
16994;SDS011;8614;48.522;9.206;2023-07-30T07:24:26;4.47;;;3.30;;
16994;SDS011;8614;48.522;9.206;2023-07-30T07:27:10;3.50;;;3.20;;
16994;SDS011;8614;48.522;9.206;2023-07-30T07:29:38;3.00;;;2.80;;
16994;SDS011;8614;48.522;9.206;2023-07-30T07:32:07;5.77;;;5.37;;
16994;SDS011;8614;48.522;9.206;2023-07-30T07:34:34;7.60;;;7.10;;
16994;SDS011;8614;48.522;9.206;2023-07-30T07:37:02;4.97;;;4.40;;
16994;SDS011;8614;48.522;9.206;2023-07-30T07:39:32;4.13;;;3.70;;
16994;SDS011;8614;48.522;9.206;2023-07-30T07:41:59;6.53;;;6.03;;
16994;SDS011;8614;48.522;9.206;2023-07-30T07:44:26;7.00;;;6.40;;
16994;SDS011;8614;48.522;9.206;2023-07-30T07:46:53;5.07;;;4.57;;
16994;SDS011;8614;48.522;9.206;2023-07-30T07:49:20;6.60;;;3.13;;
16994;SDS011;8614;48.522;9.206;2023-07-30T07:51:46;3.13;;;2.83;;
16994;SDS011;8614;48.522;9.206;2023-07-30T07:54:15;3.93;;;3.63;;
16994;SDS011;8614;48.522;9.206;2023-07-30T07:56:55;3.43;;;3.13;;
16994;SDS011;8614;48.522;9.206;2023-07-30T07:59:34;6.70;;;6.30;;
16994;SDS011;8614;48.522;9.206;2023-07-30T08:02:20;7.17;;;6.67;;
16994;SDS011;8614;48.522;9.206;2023-07-30T08:05:01;2.93;;;2.73;;
16994;SDS011;8614;48.522;9.206;2023-07-30T08:07:29;3.03;;;2.83;;
16994;SDS011;8614;48.522;9.206;2023-07-30T08:10:00;3.37;;;3.00;;
16994;SDS011;8614;48.522;9.206;2023-07-30T08:12:27;4.90;;;4.50;;
16994;SDS011;8614;48.522;9.206;2023-07-30T08:14:54;3.20;;;2.90;;
16994;SDS011;8614;48.522;9.206;2023-07-30T08:17:26;3.10;;;2.80;;
16994;SDS011;8614;48.522;9.206;2023-07-30T08:19:53;4.47;;;4.17;;
16994;SDS011;8614;48.522;9.206;2023-07-30T08:22:20;4.83;;;4.53;;
16994;SDS011;8614;48.522;9.206;2023-07-30T08:24:47;5.83;;;5.33;;
16994;SDS011;8614;48.522;9.206;2023-07-30T08:27:15;4.53;;;4.13;;
16994;SDS011;8614;48.522;9.206;2023-07-30T08:29:42;3.10;;;2.90;;
16994;SDS011;8614;48.522;9.206;2023-07-30T08:32:10;3.03;;;2.83;;
16994;SDS011;8614;48.522;9.206;2023-07-30T08:34:36;3.33;;;3.10;;
16994;SDS011;8614;48.522;9.206;2023-07-30T08:37:04;5.47;;;4.97;;
16994;SDS011;8614;48.522;9.206;2023-07-30T08:39:31;4.73;;;4.43;;
16994;SDS011;8614;48.522;9.206;2023-07-30T08:41:58;5.90;;;5.50;;
16994;SDS011;8614;48.522;9.206;2023-07-30T08:44:26;5.03;;;4.63;;
16994;SDS011;8614;48.522;9.206;2023-07-30T08:46:53;3.90;;;3.70;;
16994;SDS011;8614;48.522;9.206;2023-07-30T08:49:20;4.20;;;3.40;;
16994;SDS011;8614;48.522;9.206;2023-07-30T08:51:48;3.47;;;3.17;;
16994;SDS011;8614;48.522;9.206;2023-07-30T08:54:18;3.10;;;2.90;;
16994;SDS011;8614;48.522;9.206;2023-07-30T08:56:46;3.40;;;3.10;;
16994;SDS011;8614;48.522;9.206;2023-07-30T08:59:17;2.90;;;2.70;;
16994;SDS011;8614;48.522;9.206;2023-07-30T09:01:50;2.80;;;2.60;;
16994;SDS011;8614;48.522;9.206;2023-07-30T09:04:18;4.47;;;3.70;;
16994;SDS011;8614;48.522;9.206;2023-07-30T09:06:47;3.13;;;2.93;;
16994;SDS011;8614;48.522;9.206;2023-07-30T09:09:15;3.00;;;2.80;;
16994;SDS011;8614;48.522;9.206;2023-07-30T09:11:42;3.00;;;2.80;;
16994;SDS011;8614;48.522;9.206;2023-07-30T09:14:09;3.17;;;2.90;;
16994;SDS011;8614;48.522;9.206;2023-07-30T09:16:36;2.80;;;2.60;;
16994;SDS011;8614;48.522;9.206;2023-07-30T09:19:05;3.33;;;3.03;;
16994;SDS011;8614;48.522;9.206;2023-07-30T09:21:33;4.23;;;3.83;;
16994;SDS011;8614;48.522;9.206;2023-07-30T09:24:01;3.57;;;3.33;;
16994;SDS011;8614;48.522;9.206;2023-07-30T09:26:38;3.40;;;3.10;;
16994;SDS011;8614;48.522;9.206;2023-07-30T09:29:08;3.70;;;3.50;;
16994;SDS011;8614;48.522;9.206;2023-07-30T09:31:43;4.70;;;4.40;;
16994;SDS011;8614;48.522;9.206;2023-07-30T09:34:16;4.87;;;4.57;;
16994;SDS011;8614;48.522;9.206;2023-07-30T09:36:43;7.90;;;7.40;;
16994;SDS011;8614;48.522;9.206;2023-07-30T09:39:14;8.97;;;8.47;;
16994;SDS011;8614;48.522;9.206;2023-07-30T09:41:42;8.90;;;8.30;;
16994;SDS011;8614;48.522;9.206;2023-07-30T09:44:09;3.33;;;3.03;;
16994;SDS011;8614;48.522;9.206;2023-07-30T09:46:41;7.67;;;7.27;;
16994;SDS011;8614;48.522;9.206;2023-07-30T09:49:09;8.10;;;7.60;;
16994;SDS011;8614;48.522;9.206;2023-07-30T09:51:37;7.90;;;7.40;;
16994;SDS011;8614;48.522;9.206;2023-07-30T09:54:05;8.17;;;7.60;;
16994;SDS011;8614;48.522;9.206;2023-07-30T09:56:33;7.30;;;6.90;;
16994;SDS011;8614;48.522;9.206;2023-07-30T09:59:00;8.07;;;7.57;;
16994;SDS011;8614;48.522;9.206;2023-07-30T10:01:27;8.70;;;8.10;;
16994;SDS011;8614;48.522;9.206;2023-07-30T10:03:56;9.33;;;8.73;;
16994;SDS011;8614;48.522;9.206;2023-07-30T10:06:23;8.77;;;8.27;;
16994;SDS011;8614;48.522;9.206;2023-07-30T10:08:54;3.10;;;2.90;;
16994;SDS011;8614;48.522;9.206;2023-07-30T10:11:27;5.73;;;4.13;;
16994;SDS011;8614;48.522;9.206;2023-07-30T10:13:55;3.77;;;3.57;;
16994;SDS011;8614;48.522;9.206;2023-07-30T10:16:24;3.87;;;2.90;;
16994;SDS011;8614;48.522;9.206;2023-07-30T10:18:55;6.47;;;5.90;;
16994;SDS011;8614;48.522;9.206;2023-07-30T10:21:23;4.57;;;4.17;;
16994;SDS011;8614;48.522;9.206;2023-07-30T10:23:59;3.50;;;3.20;;
16994;SDS011;8614;48.522;9.206;2023-07-30T10:26:27;2.73;;;2.53;;
16994;SDS011;8614;48.522;9.206;2023-07-30T10:29:10;4.97;;;4.67;;
16994;SDS011;8614;48.522;9.206;2023-07-30T10:31:42;7.57;;;7.07;;
16994;SDS011;8614;48.522;9.206;2023-07-30T10:34:10;5.07;;;4.70;;
16994;SDS011;8614;48.522;9.206;2023-07-30T10:36:40;5.63;;;5.13;;
16994;SDS011;8614;48.522;9.206;2023-07-30T10:39:15;8.07;;;7.57;;
16994;SDS011;8614;48.522;9.206;2023-07-30T10:41:43;8.50;;;7.90;;
16994;SDS011;8614;48.522;9.206;2023-07-30T10:44:17;8.07;;;7.57;;
16994;SDS011;8614;48.522;9.206;2023-07-30T10:46:47;7.80;;;7.30;;
16994;SDS011;8614;48.522;9.206;2023-07-30T10:49:14;2.93;;;2.70;;
16994;SDS011;8614;48.522;9.206;2023-07-30T10:51:41;7.37;;;6.77;;
16994;SDS011;8614;48.522;9.206;2023-07-30T10:54:08;6.50;;;6.00;;
16994;SDS011;8614;48.522;9.206;2023-07-30T10:56:36;7.63;;;7.13;;
16994;SDS011;8614;48.522;9.206;2023-07-30T10:59:04;8.43;;;7.83;;
16994;SDS011;8614;48.522;9.206;2023-07-30T11:01:35;7.40;;;7.00;;
16994;SDS011;8614;48.522;9.206;2023-07-30T11:04:05;6.37;;;5.87;;
16994;SDS011;8614;48.522;9.206;2023-07-30T11:06:33;5.37;;;4.60;;
16994;SDS011;8614;48.522;9.206;2023-07-30T11:08:59;6.50;;;6.10;;
16994;SDS011;8614;48.522;9.206;2023-07-30T11:11:26;4.73;;;4.43;;
16994;SDS011;8614;48.522;9.206;2023-07-30T11:13:55;4.03;;;3.70;;
16994;SDS011;8614;48.522;9.206;2023-07-30T11:16:22;4.90;;;4.60;;
16994;SDS011;8614;48.522;9.206;2023-07-30T11:18:49;6.97;;;6.50;;
16994;SDS011;8614;48.522;9.206;2023-07-30T11:21:17;7.50;;;6.93;;
16994;SDS011;8614;48.522;9.206;2023-07-30T11:23:45;7.00;;;6.50;;
16994;SDS011;8614;48.522;9.206;2023-07-30T11:26:13;3.70;;;3.40;;
16994;SDS011;8614;48.522;9.206;2023-07-30T11:28:41;7.40;;;6.77;;
16994;SDS011;8614;48.522;9.206;2023-07-30T11:31:10;6.43;;;5.80;;
16994;SDS011;8614;48.522;9.206;2023-07-30T11:33:39;6.83;;;6.33;;
16994;SDS011;8614;48.522;9.206;2023-07-30T11:36:07;6.83;;;6.43;;
16994;SDS011;8614;48.522;9.206;2023-07-30T11:38:35;8.23;;;7.63;;
16994;SDS011;8614;48.522;9.206;2023-07-30T11:41:04;7.80;;;7.20;;
16994;SDS011;8614;48.522;9.206;2023-07-30T11:43:35;7.03;;;6.50;;
16994;SDS011;8614;48.522;9.206;2023-07-30T11:46:07;5.90;;;5.40;;
16994;SDS011;8614;48.522;9.206;2023-07-30T11:48:37;6.23;;;5.73;;
16994;SDS011;8614;48.522;9.206;2023-07-30T11:51:05;7.60;;;7.10;;
16994;SDS011;8614;48.522;9.206;2023-07-30T11:53:44;7.40;;;6.90;;
16994;SDS011;8614;48.522;9.206;2023-07-30T11:56:22;5.00;;;4.60;;
16994;SDS011;8614;48.522;9.206;2023-07-30T11:58:50;5.90;;;5.47;;
16994;SDS011;8614;48.522;9.206;2023-07-30T12:01:21;5.50;;;5.10;;
16994;SDS011;8614;48.522;9.206;2023-07-30T12:03:50;6.07;;;5.57;;
16994;SDS011;8614;48.522;9.206;2023-07-30T12:06:20;6.47;;;5.97;;
16994;SDS011;8614;48.522;9.206;2023-07-30T12:08:48;5.97;;;5.47;;
16994;SDS011;8614;48.522;9.206;2023-07-30T12:11:16;5.90;;;5.50;;
16994;SDS011;8614;48.522;9.206;2023-07-30T12:13:44;5.53;;;5.10;;
16994;SDS011;8614;48.522;9.206;2023-07-30T12:16:12;5.00;;;4.70;;
16994;SDS011;8614;48.522;9.206;2023-07-30T12:18:40;5.40;;;5.00;;
16994;SDS011;8614;48.522;9.206;2023-07-30T12:21:07;6.20;;;4.80;;
16994;SDS011;8614;48.522;9.206;2023-07-30T12:23:36;5.27;;;4.77;;
16994;SDS011;8614;48.522;9.206;2023-07-30T12:26:03;8.60;;;7.93;;
16994;SDS011;8614;48.522;9.206;2023-07-30T12:28:30;7.77;;;7.17;;
16994;SDS011;8614;48.522;9.206;2023-07-30T12:30:58;7.77;;;7.23;;
16994;SDS011;8614;48.522;9.206;2023-07-30T12:33:25;7.87;;;7.10;;
16994;SDS011;8614;48.522;9.206;2023-07-30T12:35:53;7.10;;;6.60;;
16994;SDS011;8614;48.522;9.206;2023-07-30T12:38:20;8.30;;;7.70;;
16994;SDS011;8614;48.522;9.206;2023-07-30T12:40:46;7.40;;;6.70;;
16994;SDS011;8614;48.522;9.206;2023-07-30T12:43:13;6.97;;;6.53;;
16994;SDS011;8614;48.522;9.206;2023-07-30T12:45:40;5.63;;;5.23;;
16994;SDS011;8614;48.522;9.206;2023-07-30T12:48:07;33.63;;;14.93;;
16994;SDS011;8614;48.522;9.206;2023-07-30T12:50:34;59.47;;;25.20;;
16994;SDS011;8614;48.522;9.206;2023-07-30T12:53:02;37.37;;;17.33;;
16994;SDS011;8614;48.522;9.206;2023-07-30T12:55:30;18.97;;;12.53;;
16994;SDS011;8614;48.522;9.206;2023-07-30T12:57:57;9.03;;;7.73;;
16994;SDS011;8614;48.522;9.206;2023-07-30T13:00:25;8.33;;;7.70;;
16994;SDS011;8614;48.522;9.206;2023-07-30T13:02:52;7.20;;;6.67;;
16994;SDS011;8614;48.522;9.206;2023-07-30T13:05:20;7.00;;;6.47;;
16994;SDS011;8614;48.522;9.206;2023-07-30T13:07:47;6.90;;;6.40;;
16994;SDS011;8614;48.522;9.206;2023-07-30T13:10:15;7.17;;;6.67;;
16994;SDS011;8614;48.522;9.206;2023-07-30T13:12:42;6.07;;;5.67;;
16994;SDS011;8614;48.522;9.206;2023-07-30T13:15:09;6.87;;;6.30;;
16994;SDS011;8614;48.522;9.206;2023-07-30T13:17:37;6.00;;;5.50;;
16994;SDS011;8614;48.522;9.206;2023-07-30T13:20:04;6.50;;;6.10;;
16994;SDS011;8614;48.522;9.206;2023-07-30T13:22:31;7.37;;;6.77;;
16994;SDS011;8614;48.522;9.206;2023-07-30T13:24:58;6.70;;;6.20;;
16994;SDS011;8614;48.522;9.206;2023-07-30T13:27:26;6.13;;;5.70;;
16994;SDS011;8614;48.522;9.206;2023-07-30T13:29:53;6.70;;;6.20;;
16994;SDS011;8614;48.522;9.206;2023-07-30T13:32:20;6.70;;;6.03;;
16994;SDS011;8614;48.522;9.206;2023-07-30T13:34:47;6.03;;;5.40;;
16994;SDS011;8614;48.522;9.206;2023-07-30T13:37:14;5.03;;;3.90;;
16994;SDS011;8614;48.522;9.206;2023-07-30T13:39:40;7.50;;;6.83;;
16994;SDS011;8614;48.522;9.206;2023-07-30T13:42:07;4.40;;;4.00;;
16994;SDS011;8614;48.522;9.206;2023-07-30T13:44:35;6.77;;;6.10;;
16994;SDS011;8614;48.522;9.206;2023-07-30T13:47:02;6.13;;;5.63;;
16994;SDS011;8614;48.522;9.206;2023-07-30T13:49:29;7.17;;;6.57;;
16994;SDS011;8614;48.522;9.206;2023-07-30T13:51:56;7.27;;;5.37;;
16994;SDS011;8614;48.522;9.206;2023-07-30T13:54:23;6.07;;;5.57;;
16994;SDS011;8614;48.522;9.206;2023-07-30T13:56:50;6.70;;;6.13;;
16994;SDS011;8614;48.522;9.206;2023-07-30T13:59:16;6.03;;;5.63;;
16994;SDS011;8614;48.522;9.206;2023-07-30T14:01:45;6.30;;;5.90;;
16994;SDS011;8614;48.522;9.206;2023-07-30T14:04:11;6.60;;;6.00;;
16994;SDS011;8614;48.522;9.206;2023-07-30T14:06:38;5.60;;;4.97;;
16994;SDS011;8614;48.522;9.206;2023-07-30T14:09:05;5.80;;;5.20;;
16994;SDS011;8614;48.522;9.206;2023-07-30T14:11:32;7.23;;;5.50;;
16994;SDS011;8614;48.522;9.206;2023-07-30T14:13:59;6.40;;;5.80;;
16994;SDS011;8614;48.522;9.206;2023-07-30T14:16:26;5.90;;;5.40;;
16994;SDS011;8614;48.522;9.206;2023-07-30T14:18:54;5.50;;;5.10;;
16994;SDS011;8614;48.522;9.206;2023-07-30T14:21:21;5.90;;;5.40;;
16994;SDS011;8614;48.522;9.206;2023-07-30T14:23:48;8.17;;;6.20;;
16994;SDS011;8614;48.522;9.206;2023-07-30T14:26:15;6.67;;;6.10;;
16994;SDS011;8614;48.522;9.206;2023-07-30T14:28:41;6.40;;;5.87;;
16994;SDS011;8614;48.522;9.206;2023-07-30T14:31:08;7.17;;;6.57;;
16994;SDS011;8614;48.522;9.206;2023-07-30T14:33:35;5.83;;;5.43;;
16994;SDS011;8614;48.522;9.206;2023-07-30T14:36:06;4.70;;;4.30;;
16994;SDS011;8614;48.522;9.206;2023-07-30T14:38:36;4.70;;;4.30;;
16994;SDS011;8614;48.522;9.206;2023-07-30T14:41:03;5.50;;;5.00;;
16994;SDS011;8614;48.522;9.206;2023-07-30T14:43:31;6.37;;;5.60;;
16994;SDS011;8614;48.522;9.206;2023-07-30T14:45:57;6.33;;;5.83;;
16994;SDS011;8614;48.522;9.206;2023-07-30T14:48:24;6.07;;;5.67;;
16994;SDS011;8614;48.522;9.206;2023-07-30T14:50:51;6.60;;;6.10;;
16994;SDS011;8614;48.522;9.206;2023-07-30T14:53:19;7.23;;;6.63;;
16994;SDS011;8614;48.522;9.206;2023-07-30T14:55:46;6.90;;;6.40;;
16994;SDS011;8614;48.522;9.206;2023-07-30T14:58:13;6.67;;;6.17;;